• Join FlightAware (Why Join?)
  • Login
  • US Flag 
08:59PM EDT


 

Airport Tracker/Info


-or-


 

Live Flight TrackerFlight Track Log ✈ GJS3649 ✈ 13-May-2013 ✈ KBDL - KIAD

Flight Track Log - Related Links

Times and Time Zones

All times are in EDT time to prevent confusion due to time zone crossing. See the GJS3649 flight status page for this flight to view local times or setup timezone preferences in your user account.

Time Position Orientation Groundspeed Altitude Reporting Facility
EDT Latitude Longitude Course Direction KTS MPH feet Rate Location/Type
07:18PM 41.9458 -72.7025 236° Southwest 158 182 900  Level Boston Center
07:18PM 41.9542 -72.7136 315° West 135 155 1,600 2,340 Climbing Boston Center
07:19PM 41.9853 -72.7725 305° West 167 192 4,200 1,980 Climbing Boston Center
07:20PM 41.9808 -72.8422 265° West 180 207 5,800 2,280 Climbing Boston Center
07:21PM 41.9026 -73.1969 265° West  Level FlightAware Approximate
07:21PM 41.9636 -72.9369 256° West 212 244 8,800  Level Boston Center
07:22PM 41.8888 -73.3224 236° Southwest  Level FlightAware Approximate
07:22PM 41.9508 -73.0347 260° West 258 297 11,700  Level Boston Center
07:23PM 41.8348 -73.4305 236° Southwest  Level FlightAware Approximate
07:23PM 41.9333 -73.1517 259° West 289 333 14,600  Level Boston Center
07:24PM 41.9203 -73.2464 260° West 295 339 17,300 2,400 Climbing Boston Center
07:25PM 41.8861 -73.3436 245° Southwest 295 339 19,400 2,280 Climbing Boston Center
07:26PM 41.8294 -73.4153 223° Southwest 288 331 21,900 2,280 Climbing Boston Center
07:27PM 41.7703 -73.4783 218° Southwest 281 323 24,000 1,440 Climbing Boston Center
07:29PM 41.6400 -73.6025 215° Southwest 282 325 26,200 1,020 Climbing New York Center
07:30PM 41.5717 -73.6717 217° Southwest 296 341 27,100 900 Climbing New York Center
07:31PM 41.4928 -73.7486 216° Southwest 328 377 28,100 960 Climbing New York Center
07:32PM 41.4136 -73.8281 217° Southwest 346 398 29,100 900 Climbing New York Center
07:33PM 41.3503 -73.9356 232° Southwest 357 411 29,900 420 Climbing New York Center
07:34PM 41.2950 -74.0544 238° Southwest 374 430 30,000  Climbing New York Center
07:35PM 41.2375 -74.1758 238° Southwest 386 444 30,000  Level New York Center
07:36PM 41.1800 -74.2886 236° Southwest 386 444 30,000  Level New York Center
07:37PM 41.1244 -74.4042 237° Southwest 381 438 30,000  Level New York Center
07:38PM 41.0664 -74.5247 237° Southwest 381 438 30,000  Level New York Center
07:39PM 41.0067 -74.6369 235° Southwest 381 438 30,000  Level New York Center
07:40PM 40.9464 -74.7544 236° Southwest 381 438 30,000  Level New York Center
07:41PM 40.8844 -74.8633 233° Southwest 386 444 30,000 -180 Level New York Center
07:42PM 40.8217 -74.9858 236° Southwest 391 450 29,700 -720 Descending New York Center
07:43PM 40.7636 -75.1000 236° Southwest 391 450 28,600 -1,080 Descending New York Center
07:44PM 40.7256 -75.2261 248° West 372 428 27,600 -960 Descending New York Center
07:45PM 40.6897 -75.3469 249° West 366 421 26,700 -960 Descending New York Center
07:46PM 40.6517 -75.4650 247° West 361 415 25,700 -1,020 Descending New York Center
07:47PM 40.6072 -75.5822 243° Southwest 361 415 24,700 -1,020 Descending New York Center
07:48PM 40.5428 -75.6814 229° Southwest 356 410 23,700 -1,020 Descending New York Center
07:49PM 40.4761 -75.7775 228° Southwest 356 410 22,700 -1,020 Descending New York Center
07:50PM 40.4097 -75.8708 227° Southwest 361 415 21,700 -1,020 Descending New York Center
07:51PM 40.3406 -75.9722 228° Southwest 368 423 20,700 -1,020 Descending New York Center
07:52PM 40.2719 -76.0675 227° Southwest 373 429 19,700 -1,020 Descending New York Center
07:55PM 40.1167 -76.3167 231° Southwest 351 404 17,300 -840 Descending Potomac TRACON
07:56PM 40.0667 -76.4167 237° Southwest 326 375 17,000 -600 Descending Potomac TRACON
07:57PM 40.0167 -76.5167 237° Southwest 320 368 16,200 -900 Descending Potomac TRACON
07:58PM 39.9667 -76.6167 237° Southwest 315 362 15,200 -600 Descending Potomac TRACON
07:59PM 39.9333 -76.7000 242° Southwest 302 348 15,000 -120 Descending Potomac TRACON
08:00PM 39.8833 -76.8000 237° Southwest 295 339 15,000  Level Potomac TRACON
08:01PM 39.8500 -76.8833 243° Southwest 291 335 15,000  Level Potomac TRACON
08:02PM 39.8000 -76.9667 232° Southwest 290 334 15,000  Level Potomac TRACON
08:03PM 39.7667 -77.0667 247° West 291 335 15,000 -660 Level Potomac TRACON
08:04PM 39.7167 -77.1500 232° Southwest 290 334 13,700 -1,440 Descending Potomac TRACON
08:05PM 39.6500 -77.2000 210° Southwest 295 339 12,300 -1,620 Descending Potomac TRACON
08:06PM 39.5833 -77.2500 210° Southwest 287 330 10,700 -1,560 Descending Potomac TRACON
08:07PM 39.5167 -77.3000 210° Southwest 282 325 9,200 -1,380 Descending Potomac TRACON
08:08PM 39.3833 -77.3667 201° Southwest 280 322 6,800 -1,260 Descending Potomac TRACON
08:09PM 39.3000 -77.3667 180° South 277 319 5,700 -1,140 Descending Potomac TRACON
08:10PM 39.2333 -77.3667 180° South 276 318 4,600 -840 Descending Potomac TRACON
08:11PM 39.1500 -77.3500 171° South 278 320 4,100 -300 Descending Potomac TRACON
08:12PM 39.0833 -77.3500 180° South 274 315 4,100  Level Potomac TRACON
08:13PM 39.0000 -77.3500 180° South 272 313 4,100  Level Potomac TRACON
08:14PM 38.9333 -77.3500 180° South 275 316 4,100 -240 Level Potomac TRACON
08:15PM 38.8500 -77.3500 180° South 232 267 3,700 -840 Descending Potomac TRACON
08:16PM 38.8333 -77.4000 247° West 171 197 2,500 -1,320 Descending Potomac TRACON